createdAt,value
2018-05-04T00:00:14.378Z,7.09
2018-05-04T00:01:13.670Z,7.12
2018-05-04T00:02:13.699Z,7.18
2018-05-04T00:03:14.380Z,7.21
2018-05-04T00:04:13.585Z,7.22
2018-05-04T00:05:13.555Z,7.27
2018-05-04T00:06:13.514Z,7.34
2018-05-04T00:07:13.536Z,7.29
2018-05-04T00:08:13.458Z,7.39
2018-05-04T00:09:13.431Z,7.41
2018-05-04T00:10:13.392Z,7.44
2018-05-04T00:11:13.370Z,7.41
2018-05-04T00:12:13.384Z,7.39
2018-05-04T00:13:13.300Z,7.36
2018-05-04T00:14:13.274Z,7.40
2018-05-04T00:15:13.881Z,7.30
2018-05-04T00:16:13.218Z,7.22
2018-05-04T00:17:13.438Z,7.27
2018-05-04T00:18:13.195Z,7.15
2018-05-04T00:19:13.888Z,7.16
2018-05-04T00:20:13.096Z,7.09
2018-05-04T00:21:13.061Z,7.12
2018-05-04T00:22:13.883Z,7.00
2018-05-04T00:23:13.049Z,7.08
2018-05-04T00:24:12.986Z,7.00
2018-05-04T00:25:13.881Z,7.00
2018-05-04T00:26:12.915Z,6.95
2018-05-04T00:27:12.882Z,6.97
2018-05-04T00:28:12.907Z,6.98
2018-05-04T00:29:12.873Z,6.94
2018-05-04T00:30:12.789Z,7.08
2018-05-04T00:31:12.763Z,7.12
2018-05-04T00:32:12.734Z,7.11
2018-05-04T00:33:12.748Z,7.08
2018-05-04T00:34:13.382Z,7.11
2018-05-04T00:35:12.695Z,7.09
2018-05-04T00:36:12.619Z,7.05
2018-05-04T00:37:12.582Z,7.00
2018-05-04T00:38:12.931Z,6.93
2018-05-04T00:39:12.528Z,6.86
2018-05-04T00:40:12.541Z,6.82
2018-05-04T00:41:13.386Z,6.85
2018-05-04T00:42:12.439Z,6.75
2018-05-04T00:43:12.449Z,6.64
2018-05-04T00:44:12.882Z,6.68
2018-05-04T00:45:12.385Z,6.62
2018-05-04T00:46:12.895Z,6.62
2018-05-04T00:47:12.284Z,6.58
2018-05-04T00:48:12.256Z,6.55
2018-05-04T00:49:12.443Z,6.54
2018-05-04T00:50:12.279Z,6.52
2018-05-04T00:51:12.168Z,6.51
2018-05-04T00:52:12.894Z,6.43
2018-05-04T00:53:12.110Z,6.43
2018-05-04T00:54:12.070Z,6.49
2018-05-04T00:55:12.501Z,6.37
2018-05-04T00:56:12.006Z,6.36
2018-05-04T00:57:12.890Z,6.28
2018-05-04T00:58:12.005Z,6.20
2018-05-04T00:59:11.920Z,6.21
2018-05-04T01:00:11.893Z,6.14
2018-05-04T01:01:11.858Z,6.13
2018-05-04T01:02:11.830Z,6.15
2018-05-04T01:03:11.841Z,6.10
2018-05-04T01:04:12.384Z,6.14
2018-05-04T01:05:11.760Z,6.18
2018-05-04T01:06:11.711Z,6.17
2018-05-04T01:07:11.714Z,6.24
2018-05-04T01:08:11.652Z,6.26
2018-05-04T01:09:14.392Z,6.31
2018-05-04T01:10:11.591Z,6.31
2018-05-04T01:11:11.602Z,6.29
2018-05-04T01:12:11.566Z,6.37
2018-05-04T01:13:12.416Z,6.33
2018-05-04T01:14:11.468Z,6.34
2018-05-04T01:15:11.439Z,6.21
2018-05-04T01:16:11.443Z,6.21
2018-05-04T01:17:11.440Z,6.07
2018-05-04T01:18:11.353Z,6.07
2018-05-04T01:19:11.317Z,5.98
2018-05-04T01:20:11.291Z,5.96
2018-05-04T01:21:11.301Z,5.92
2018-05-04T01:22:11.221Z,5.87
2018-05-04T01:23:11.192Z,5.96
2018-05-04T01:24:11.165Z,6.02
2018-05-04T01:25:11.890Z,5.99
2018-05-04T01:26:11.152Z,5.91
2018-05-04T01:27:11.068Z,6.03
2018-05-04T01:28:11.913Z,5.89
2018-05-04T01:29:11.005Z,6.02
2018-05-04T01:30:12.945Z,5.99
2018-05-04T01:31:10.962Z,6.02
2018-05-04T01:32:10.913Z,6.00
2018-05-04T01:33:10.890Z,6.05
2018-05-04T01:34:10.896Z,6.03
2018-05-04T01:35:10.826Z,6.03
2018-05-04T01:36:10.794Z,6.07
2018-05-04T01:37:10.761Z,6.02
2018-05-04T01:38:11.393Z,5.99
2018-05-04T01:39:10.760Z,5.91
2018-05-04T01:40:10.708Z,5.85
2018-05-04T01:41:11.389Z,5.87
2018-05-04T01:42:10.652Z,5.84
2018-05-04T01:43:10.581Z,5.85
2018-05-04T01:44:11.389Z,5.85
2018-05-04T01:45:10.563Z,5.77
2018-05-04T01:46:11.395Z,5.82
2018-05-04T01:47:10.463Z,5.75
2018-05-04T01:48:10.434Z,5.72
2018-05-04T01:49:10.952Z,5.72
2018-05-04T01:50:10.408Z,5.60
2018-05-04T01:51:10.334Z,5.57
2018-05-04T01:52:10.313Z,5.57
2018-05-04T01:53:11.137Z,5.52
2018-05-04T01:54:10.293Z,5.46
2018-05-04T01:55:10.231Z,5.44
2018-05-04T01:56:10.439Z,5.45
2018-05-04T01:57:10.159Z,5.34
2018-05-04T01:58:10.124Z,5.34
2018-05-04T01:59:10.896Z,5.37
2018-05-04T02:00:10.086Z,5.34
2018-05-04T02:01:10.442Z,5.34
2018-05-04T02:02:10.000Z,5.28
2018-05-04T02:03:10.890Z,5.31
2018-05-04T02:04:09.952Z,5.30
2018-05-04T02:05:10.900Z,5.31
2018-05-04T02:06:09.918Z,5.33
2018-05-04T02:07:09.847Z,5.28
2018-05-04T02:08:10.397Z,5.30
2018-05-04T02:09:09.829Z,5.28
2018-05-04T02:10:10.414Z,5.16
2018-05-04T02:11:09.722Z,5.20
2018-05-04T02:12:09.695Z,5.16
2018-05-04T02:13:09.660Z,5.18
2018-05-04T02:14:09.678Z,5.12
2018-05-04T02:15:09.647Z,5.18
2018-05-04T02:16:09.567Z,5.15
2018-05-04T02:17:10.397Z,5.13
2018-05-04T02:18:09.511Z,5.20
2018-05-04T02:19:09.528Z,5.10
2018-05-04T02:20:09.445Z,5.10
2018-05-04T02:21:09.419Z,5.05
2018-05-04T02:22:09.893Z,4.98
2018-05-04T02:23:09.396Z,4.91
2018-05-04T02:24:09.373Z,4.92
2018-05-04T02:25:09.890Z,4.90
2018-05-04T02:26:09.261Z,4.91
2018-05-04T02:27:09.895Z,4.90
2018-05-04T02:28:09.200Z,4.94
2018-05-04T02:29:09.216Z,4.94
2018-05-04T02:30:09.893Z,4.88
2018-05-04T02:31:09.113Z,4.84
2018-05-04T02:32:09.073Z,4.78
2018-05-04T02:33:09.045Z,4.84
2018-05-04T02:34:09.939Z,4.84
2018-05-04T02:35:09.049Z,4.79
2018-05-04T02:36:09.892Z,4.84
2018-05-04T02:37:08.919Z,4.78
2018-05-04T02:38:08.898Z,4.75
2018-05-04T02:39:08.858Z,4.76
2018-05-04T02:40:08.937Z,4.74
2018-05-04T02:41:08.807Z,4.76
2018-05-04T02:42:09.400Z,4.74
2018-05-04T02:43:08.741Z,4.71
2018-05-04T02:44:08.746Z,4.72
2018-05-04T02:45:09.391Z,4.71
2018-05-04T02:46:08.639Z,4.72
2018-05-04T02:47:08.612Z,4.71
2018-05-04T02:48:08.584Z,4.60
2018-05-04T02:49:09.051Z,4.60
2018-05-04T02:50:08.514Z,4.58
2018-05-04T02:51:08.486Z,4.65
2018-05-04T02:52:08.456Z,4.58
2018-05-04T02:53:08.424Z,4.58
2018-05-04T02:54:08.442Z,4.53
2018-05-04T02:55:08.368Z,4.44
2018-05-04T02:56:08.440Z,4.46
2018-05-04T02:57:08.300Z,4.48
2018-05-04T02:58:08.266Z,4.54
2018-05-04T02:59:08.944Z,4.53
2018-05-04T03:00:08.246Z,4.44
2018-05-04T03:01:08.173Z,4.46
2018-05-04T03:02:08.440Z,4.51
2018-05-04T03:03:08.119Z,4.47
2018-05-04T03:04:08.125Z,4.54
2018-05-04T03:05:08.437Z,4.47
2018-05-04T03:06:08.017Z,4.44
2018-05-04T03:07:08.028Z,4.42
2018-05-04T03:08:08.899Z,4.39
2018-05-04T03:09:07.959Z,4.38
2018-05-04T03:10:07.894Z,4.44
2018-05-04T03:11:07.871Z,4.42
2018-05-04T03:12:07.955Z,4.42
2018-05-04T03:13:07.825Z,4.42
2018-05-04T03:14:07.768Z,4.29
2018-05-04T03:15:07.740Z,4.28
2018-05-04T03:16:07.709Z,4.35
2018-05-04T03:17:07.709Z,4.28
2018-05-04T03:18:07.674Z,4.26
2018-05-04T03:19:08.402Z,4.28
2018-05-04T03:20:07.589Z,4.26
2018-05-04T03:21:07.560Z,4.30
2018-05-04T03:22:07.571Z,4.15
2018-05-04T03:23:07.486Z,4.22
2018-05-04T03:24:07.458Z,4.29
2018-05-04T03:25:07.424Z,4.24
2018-05-04T03:26:07.393Z,4.32
2018-05-04T03:27:07.425Z,4.26
2018-05-04T03:28:07.372Z,4.36
2018-05-04T03:29:07.296Z,4.26
2018-05-04T03:30:07.270Z,4.28
2018-05-04T03:31:07.900Z,4.30
2018-05-04T03:32:07.207Z,4.32
2018-05-04T03:33:07.215Z,4.35
2018-05-04T03:34:07.142Z,4.29
2018-05-04T03:35:07.120Z,4.30
2018-05-04T03:36:07.078Z,4.24
2018-05-04T03:37:07.055Z,4.33
2018-05-04T03:38:07.074Z,4.28
2018-05-04T03:39:06.987Z,4.38
2018-05-04T03:40:06.954Z,4.32
2018-05-04T03:41:06.931Z,4.30
2018-05-04T03:42:06.889Z,4.35
2018-05-04T03:43:06.912Z,4.29
2018-05-04T03:44:06.826Z,4.26
2018-05-04T03:45:06.808Z,4.39
2018-05-04T03:46:06.765Z,4.28
2018-05-04T03:47:06.730Z,4.26
2018-05-04T03:48:06.749Z,4.36
2018-05-04T03:49:06.680Z,4.39
2018-05-04T03:50:06.644Z,4.40
2018-05-04T03:51:06.609Z,4.39
2018-05-04T03:52:06.605Z,4.39
2018-05-04T03:53:06.607Z,4.40
2018-05-04T03:54:07.400Z,4.47
2018-05-04T03:55:06.498Z,4.48
2018-05-04T03:56:06.448Z,4.61
2018-05-04T03:57:06.429Z,4.68
2018-05-04T03:58:06.460Z,4.87
2018-05-04T03:59:06.354Z,5.13
2018-05-04T04:00:06.322Z,5.16
2018-05-04T04:01:06.298Z,5.27
2018-05-04T04:02:06.261Z,5.55
2018-05-04T04:03:06.277Z,5.77
2018-05-04T04:04:06.196Z,5.81
2018-05-04T04:05:06.233Z,5.84
2018-05-04T04:06:06.137Z,6.07
2018-05-04T04:07:06.105Z,6.34
2018-05-04T04:08:06.077Z,6.47
2018-05-04T04:09:06.041Z,6.62
2018-05-04T04:10:06.449Z,6.60
2018-05-04T04:11:05.979Z,6.51
2018-05-04T04:12:05.953Z,6.33
2018-05-04T04:13:05.919Z,6.31
2018-05-04T04:14:05.932Z,6.33
2018-05-04T04:15:05.856Z,6.26
2018-05-04T04:16:05.865Z,6.26
2018-05-04T04:17:05.795Z,6.15
2018-05-04T04:18:05.794Z,6.20
2018-05-04T04:19:05.736Z,6.20
2018-05-04T04:20:05.745Z,6.18
2018-05-04T04:21:05.717Z,6.34
2018-05-04T04:22:05.642Z,6.29
2018-05-04T04:23:05.613Z,6.33
2018-05-04T04:24:05.582Z,6.21
2018-05-04T04:25:05.556Z,6.25
2018-05-04T04:26:05.556Z,6.29
2018-05-04T04:27:05.526Z,6.21
2018-05-04T04:28:05.496Z,6.33
2018-05-04T04:29:05.428Z,6.33
2018-05-04T04:30:05.400Z,6.31
2018-05-04T04:31:05.404Z,6.31
2018-05-04T04:32:05.382Z,6.33
2018-05-04T04:33:05.307Z,6.42
2018-05-04T04:34:05.276Z,6.37
2018-05-04T04:35:05.251Z,6.44
2018-05-04T04:36:05.812Z,6.34
2018-05-04T04:37:05.224Z,6.49
2018-05-04T04:38:05.187Z,6.43
2018-05-04T04:39:05.124Z,6.52
2018-05-04T04:40:05.087Z,6.49
2018-05-04T04:41:05.064Z,6.64
2018-05-04T04:42:05.907Z,6.70
2018-05-04T04:43:05.045Z,6.64
2018-05-04T04:44:04.966Z,6.78
2018-05-04T04:45:04.943Z,6.76
2018-05-04T04:46:05.899Z,6.86
2018-05-04T04:47:04.884Z,6.94
2018-05-04T04:48:04.888Z,6.95
2018-05-04T04:49:04.822Z,7.01
2018-05-04T04:50:04.796Z,6.97
2018-05-04T04:51:04.761Z,6.95
2018-05-04T04:52:04.734Z,7.00
2018-05-04T04:53:04.733Z,6.97
2018-05-04T04:54:04.665Z,7.01
2018-05-04T04:55:04.638Z,7.09
2018-05-04T04:56:04.649Z,7.05
2018-05-04T04:57:04.628Z,7.18
2018-05-04T04:58:04.543Z,7.29
2018-05-04T04:59:04.516Z,7.30
2018-05-04T05:00:04.499Z,7.39
2018-05-04T05:01:04.507Z,7.45
2018-05-04T05:02:04.425Z,7.58
2018-05-04T05:03:04.442Z,7.71
2018-05-04T05:04:04.363Z,7.74
2018-05-04T05:05:04.337Z,7.91
2018-05-04T05:06:04.307Z,7.93
2018-05-04T05:07:04.282Z,8.07
2018-05-04T05:08:04.299Z,8.01
2018-05-04T05:09:04.258Z,8.01
2018-05-04T05:10:04.185Z,8.09
2018-05-04T05:11:04.163Z,8.16
2018-05-04T05:12:04.128Z,8.26
2018-05-04T05:13:04.184Z,8.36
2018-05-04T05:14:04.076Z,8.42
2018-05-04T05:15:04.041Z,8.53
2018-05-04T05:16:04.017Z,8.60
2018-05-04T05:17:03.983Z,8.69
2018-05-04T05:18:04.007Z,8.64
2018-05-04T05:19:03.927Z,8.79
2018-05-04T05:20:03.933Z,8.77
2018-05-04T05:21:03.875Z,8.77
2018-05-04T05:22:03.879Z,8.72
2018-05-04T05:23:03.811Z,8.83
2018-05-04T05:24:03.793Z,8.86
2018-05-04T05:25:03.807Z,8.77
2018-05-04T05:26:03.722Z,8.90
2018-05-04T05:27:03.695Z,8.95
2018-05-04T05:28:03.673Z,9.01
2018-05-04T05:29:03.637Z,8.98
2018-05-04T05:30:03.649Z,9.01
2018-05-04T05:31:03.580Z,9.16
2018-05-04T05:32:03.547Z,9.23
2018-05-04T05:33:03.523Z,9.24
2018-05-04T05:34:03.496Z,9.21
2018-05-04T05:35:03.600Z,9.30
2018-05-04T05:36:03.429Z,9.32
2018-05-04T05:37:03.521Z,9.39
2018-05-04T05:38:03.447Z,9.42
2018-05-04T05:39:03.366Z,9.44
2018-05-04T05:40:03.360Z,9.59
2018-05-04T05:41:03.293Z,9.56
2018-05-04T05:42:03.262Z,9.57
2018-05-04T05:43:03.233Z,9.56
2018-05-04T05:44:03.214Z,9.53
2018-05-04T05:45:03.237Z,9.63
2018-05-04T05:46:03.148Z,9.70
2018-05-04T05:47:03.121Z,9.72
2018-05-04T05:48:03.088Z,9.75
2018-05-04T05:49:03.060Z,9.74
2018-05-04T05:50:03.075Z,9.81
2018-05-04T05:51:03.007Z,9.82
2018-05-04T05:52:03.029Z,9.88
2018-05-04T05:53:02.944Z,9.92
2018-05-04T05:54:02.917Z,9.96
2018-05-04T05:55:02.897Z,9.96
2018-05-04T05:56:02.860Z,9.99
2018-05-04T05:57:02.876Z,10.10
2018-05-04T05:58:02.816Z,10.07
2018-05-04T05:59:02.773Z,10.05
2018-05-04T06:00:02.744Z,10.18
2018-05-04T06:01:02.774Z,10.18
2018-05-04T06:02:02.692Z,10.25
2018-05-04T06:03:03.417Z,10.33
2018-05-04T06:04:02.695Z,10.36
2018-05-04T06:05:02.606Z,10.33
2018-05-04T06:06:02.576Z,10.44
2018-05-04T06:07:02.604Z,10.46
2018-05-04T06:08:02.518Z,10.52
2018-05-04T06:09:02.494Z,10.61
2018-05-04T06:10:02.516Z,10.51
2018-05-04T06:11:02.435Z,10.57
2018-05-04T06:12:02.412Z,10.63
2018-05-04T06:13:02.377Z,10.66
2018-05-04T06:14:02.352Z,10.66
2018-05-04T06:15:02.441Z,10.79
2018-05-04T06:16:02.296Z,10.85
2018-05-04T06:17:02.264Z,10.85
2018-05-04T06:18:02.239Z,10.97
2018-05-04T06:19:02.221Z,10.94
2018-05-04T06:20:02.219Z,10.94
2018-05-04T06:21:02.156Z,11.06
2018-05-04T06:22:02.196Z,10.98
2018-05-04T06:23:02.153Z,11.00
2018-05-04T06:24:02.069Z,11.13
2018-05-04T06:25:02.071Z,11.16
2018-05-04T06:26:02.020Z,11.13
2018-05-04T06:27:02.030Z,11.09
2018-05-04T06:28:01.960Z,11.23
2018-05-04T06:29:01.936Z,11.12
2018-05-04T06:30:01.903Z,11.23
2018-05-04T06:31:01.879Z,11.24
2018-05-04T06:32:01.914Z,11.26
2018-05-04T06:33:01.823Z,11.26
2018-05-04T06:34:01.801Z,11.31
2018-05-04T06:35:01.765Z,11.38
2018-05-04T06:36:01.735Z,11.42
2018-05-04T06:37:01.773Z,11.45
2018-05-04T06:38:01.694Z,11.49
2018-05-04T06:39:01.653Z,11.57
2018-05-04T06:40:01.623Z,11.49
2018-05-04T06:41:01.619Z,11.61
2018-05-04T06:42:01.616Z,11.59
2018-05-04T06:43:01.587Z,11.67
2018-05-04T06:44:01.520Z,11.68
2018-05-04T06:45:01.488Z,11.70
2018-05-04T06:46:01.461Z,11.76
2018-05-04T06:47:01.471Z,11.67
2018-05-04T06:48:01.466Z,11.75
2018-05-04T06:49:01.445Z,11.76
2018-05-04T06:50:01.366Z,11.73
2018-05-04T06:51:01.325Z,11.81
2018-05-04T06:52:01.329Z,11.86
2018-05-04T06:53:01.315Z,11.95
2018-05-04T06:54:01.250Z,11.94
2018-05-04T06:55:01.219Z,12.01
2018-05-04T06:56:01.191Z,11.95
2018-05-04T06:57:01.160Z,11.97
2018-05-04T06:58:01.183Z,12.03
2018-05-04T06:59:01.109Z,12.07
2018-05-04T07:00:01.087Z,11.97
2018-05-04T07:01:01.057Z,12.16
2018-05-04T07:02:01.026Z,12.15
2018-05-04T07:03:01.034Z,12.22
2018-05-04T07:04:01.000Z,12.26
2018-05-04T07:05:00.947Z,12.18
2018-05-04T07:06:00.920Z,12.29
2018-05-04T07:07:00.892Z,12.22
2018-05-04T07:08:00.864Z,12.36
2018-05-04T07:09:00.919Z,12.37
2018-05-04T07:10:00.810Z,12.40
2018-05-04T07:11:00.781Z,12.40
2018-05-04T07:12:00.753Z,12.48
2018-05-04T07:13:00.726Z,12.55
2018-05-04T07:14:00.765Z,12.56
2018-05-04T07:15:00.702Z,12.51
2018-05-04T07:16:00.647Z,12.53
2018-05-04T07:17:00.623Z,12.61
2018-05-04T07:18:00.633Z,12.65
2018-05-04T07:19:00.567Z,12.70
2018-05-04T07:20:00.584Z,12.66
2018-05-04T07:21:00.559Z,12.71
2018-05-04T07:22:00.527Z,12.65
2018-05-04T07:23:00.463Z,12.71
2018-05-04T07:24:00.430Z,12.66
2018-05-04T07:25:00.450Z,12.83
2018-05-04T07:26:00.375Z,12.83
2018-05-04T07:27:00.364Z,12.88
2018-05-04T07:28:00.339Z,12.81
2018-05-04T07:29:00.319Z,12.84
2018-05-04T07:30:00.329Z,12.91
2018-05-04T07:31:00.288Z,12.80
2018-05-04T07:32:00.236Z,12.84
2018-05-04T07:33:00.196Z,12.84
2018-05-04T07:34:00.164Z,12.83
2018-05-04T07:35:00.138Z,12.95
2018-05-04T07:36:00.185Z,12.99
2018-05-04T07:37:00.096Z,12.91
2018-05-04T07:38:00.054Z,13.07
2018-05-04T07:39:00.029Z,13.14
2018-05-04T07:40:00.003Z,13.16
2018-05-04T07:41:00.048Z,13.16
2018-05-04T07:42:00.049Z,13.14
2018-05-04T07:42:59.924Z,13.16
2018-05-04T07:43:59.893Z,13.19
2018-05-04T07:44:59.882Z,13.14
2018-05-04T07:45:59.872Z,13.16
2018-05-04T07:46:59.876Z,13.13
2018-05-04T07:47:59.791Z,13.21
2018-05-04T07:48:59.769Z,13.32
2018-05-04T07:49:59.740Z,13.42
2018-05-04T07:50:59.725Z,13.39
2018-05-04T07:51:59.719Z,13.44
2018-05-04T07:52:59.655Z,13.39
2018-05-04T07:53:59.630Z,13.37
2018-05-04T07:54:59.608Z,13.47
2018-05-04T07:55:59.574Z,13.48
2018-05-04T07:56:59.605Z,13.44
2018-05-04T07:57:59.526Z,13.50
2018-05-04T07:58:59.498Z,13.57
2018-05-04T07:59:59.491Z,13.68
2018-05-04T08:00:59.442Z,13.68
2018-05-04T08:01:59.460Z,13.57
2018-05-04T08:02:59.457Z,13.58
2018-05-04T08:03:59.372Z,13.58
2018-05-04T08:04:59.339Z,13.54
2018-05-04T08:05:59.311Z,13.57
2018-05-04T08:06:59.335Z,13.62
2018-05-04T08:07:59.260Z,13.69
2018-05-04T08:08:59.239Z,13.83
2018-05-04T08:09:59.207Z,13.79
2018-05-04T08:10:59.177Z,13.83
2018-05-04T08:11:59.207Z,13.90
2018-05-04T08:12:59.128Z,13.83
2018-05-04T08:13:59.141Z,13.94
2018-05-04T08:14:59.081Z,13.91
2018-05-04T08:15:59.051Z,13.99
2018-05-04T08:16:59.028Z,13.99
2018-05-04T08:17:59.000Z,13.79
2018-05-04T08:18:59.031Z,13.90
2018-05-04T08:19:59.039Z,13.86
2018-05-04T08:20:58.922Z,13.90
2018-05-04T08:21:58.894Z,13.83
2018-05-04T08:22:58.862Z,13.83
2018-05-04T08:23:58.889Z,13.81
2018-05-04T08:24:58.815Z,13.87
2018-05-04T08:25:58.786Z,13.88
2018-05-04T08:26:58.764Z,13.91
2018-05-04T08:27:58.734Z,13.90
2018-05-04T08:28:58.745Z,13.97
2018-05-04T08:29:58.687Z,13.88
2018-05-04T08:30:58.653Z,13.99
2018-05-04T08:31:58.692Z,14.03
2018-05-04T08:32:58.614Z,14.01
2018-05-04T08:33:58.616Z,14.02
2018-05-04T08:34:58.595Z,14.09
2018-05-04T08:35:58.525Z,14.13
2018-05-04T08:36:58.498Z,14.12
2018-05-04T08:37:58.521Z,14.23
2018-05-04T08:38:58.446Z,14.21
2018-05-04T08:39:58.421Z,14.31
2018-05-04T08:40:58.460Z,14.27
2018-05-04T08:41:58.365Z,14.33
2018-05-04T08:42:58.418Z,14.26
2018-05-04T08:43:58.330Z,14.26
2018-05-04T08:44:58.290Z,14.20
2018-05-04T08:45:58.304Z,14.15
2018-05-04T08:46:58.238Z,14.28
2018-05-04T08:47:58.207Z,14.34
2018-05-04T08:48:58.247Z,14.44
2018-05-04T08:49:58.156Z,14.38
2018-05-04T08:50:58.215Z,14.42
2018-05-04T08:51:58.111Z,14.41
2018-05-04T08:52:58.081Z,14.39
2018-05-04T08:53:58.106Z,14.39
2018-05-04T08:54:58.027Z,14.42
2018-05-04T08:55:58.002Z,14.39
2018-05-04T08:56:58.498Z,14.34
2018-05-04T08:57:57.951Z,14.41
2018-05-04T08:58:57.920Z,14.33
2018-05-04T08:59:57.896Z,14.28
2018-05-04T09:00:57.872Z,14.38
2018-05-04T09:01:57.884Z,14.34
2018-05-04T09:02:57.821Z,14.30
2018-05-04T09:03:57.790Z,14.33
2018-05-04T09:04:57.801Z,14.31
2018-05-04T09:05:57.789Z,14.45
2018-05-04T09:06:57.723Z,14.49
2018-05-04T09:07:57.699Z,14.56
2018-05-04T09:08:57.717Z,14.53
2018-05-04T09:09:57.657Z,14.49
2018-05-04T09:10:57.620Z,14.61
2018-05-04T09:11:57.583Z,14.60
2018-05-04T09:12:57.568Z,14.67
2018-05-04T09:13:57.567Z,14.69
2018-05-04T09:14:57.509Z,14.69
2018-05-04T09:15:57.528Z,14.74
2018-05-04T09:16:57.452Z,14.71
2018-05-04T09:17:57.426Z,14.83
2018-05-04T09:18:57.412Z,14.89
2018-05-04T09:19:57.378Z,14.98
2018-05-04T09:20:57.388Z,14.95
2018-05-04T09:21:57.328Z,14.89
2018-05-04T09:22:57.299Z,14.90
2018-05-04T09:23:57.276Z,14.90
2018-05-04T09:24:57.252Z,14.95
2018-05-04T09:25:57.266Z,14.89
2018-05-04T09:26:57.222Z,14.86
2018-05-04T09:27:57.181Z,14.90
2018-05-04T09:28:57.146Z,14.89
2018-05-04T09:29:57.130Z,14.97
2018-05-04T09:30:57.153Z,15.02
2018-05-04T09:31:57.073Z,15.07
2018-05-04T09:32:57.044Z,15.02
2018-05-04T09:33:57.014Z,14.98
2018-05-04T09:34:56.993Z,14.98
2018-05-04T09:35:57.008Z,15.01
2018-05-04T09:36:56.998Z,15.12
2018-05-04T09:37:56.916Z,15.15
2018-05-04T09:38:56.891Z,15.15
2018-05-04T09:39:56.864Z,15.16
2018-05-04T09:40:56.842Z,15.15
2018-05-04T09:41:56.868Z,15.16
2018-05-04T09:42:56.815Z,15.13
2018-05-04T09:43:56.797Z,15.19
2018-05-04T09:44:56.742Z,15.16
2018-05-04T09:45:56.713Z,15.25
2018-05-04T09:46:56.739Z,15.37
2018-05-04T09:47:56.659Z,15.34
2018-05-04T09:48:56.686Z,15.34
2018-05-04T09:49:56.617Z,15.33
2018-05-04T09:50:56.588Z,15.37
2018-05-04T09:51:56.604Z,15.34
2018-05-04T09:52:56.549Z,15.44
2018-05-04T09:53:56.509Z,15.34
2018-05-04T09:54:56.529Z,15.43
2018-05-04T09:55:56.483Z,15.43
2018-05-04T09:56:56.501Z,15.49
2018-05-04T09:57:56.409Z,15.51
2018-05-04T09:58:56.428Z,15.52
2018-05-04T09:59:56.365Z,15.51
2018-05-04T10:00:56.335Z,15.59
2018-05-04T10:01:56.307Z,15.59
2018-05-04T10:02:56.950Z,15.68
2018-05-04T10:03:56.291Z,15.73
2018-05-04T10:04:56.236Z,15.77
2018-05-04T10:05:56.207Z,15.84
2018-05-04T10:06:56.196Z,15.81
2018-05-04T10:07:56.203Z,15.83
2018-05-04T10:08:56.134Z,15.81
2018-05-04T10:09:56.117Z,15.71
2018-05-04T10:10:56.085Z,15.71
2018-05-04T10:11:56.061Z,15.68
2018-05-04T10:12:56.075Z,15.70
2018-05-04T10:13:56.008Z,15.63
2018-05-04T10:14:55.983Z,15.70
2018-05-04T10:15:56.042Z,15.74
2018-05-04T10:16:55.963Z,15.67
2018-05-04T10:17:55.913Z,15.74
2018-05-04T10:18:55.885Z,15.68
2018-05-04T10:19:55.898Z,15.71
2018-05-04T10:20:55.834Z,15.71
2018-05-04T10:21:55.882Z,15.70
2018-05-04T10:22:55.784Z,15.71
2018-05-04T10:23:55.754Z,15.81
2018-05-04T10:24:55.775Z,15.77
2018-05-04T10:25:55.706Z,15.80
2018-05-04T10:26:55.765Z,15.77
2018-05-04T10:27:55.660Z,15.86
2018-05-04T10:28:55.628Z,15.96
2018-05-04T10:29:55.607Z,15.93
2018-05-04T10:30:55.611Z,15.95
2018-05-04T10:31:55.590Z,15.93
2018-05-04T10:32:55.531Z,15.81
2018-05-04T10:33:55.510Z,15.80
2018-05-04T10:34:55.551Z,15.91
2018-05-04T10:35:55.469Z,15.84
2018-05-04T10:36:55.440Z,15.91
2018-05-04T10:37:55.408Z,15.95
2018-05-04T10:38:55.487Z,15.92
2018-05-04T10:39:55.406Z,15.98
2018-05-04T10:40:55.337Z,16.02
2018-05-04T10:41:55.309Z,15.96
2018-05-04T10:42:55.328Z,15.98
2018-05-04T10:43:55.261Z,16.13
2018-05-04T10:44:55.267Z,16.07
2018-05-04T10:45:55.246Z,16.21
2018-05-04T10:46:55.189Z,16.17
2018-05-04T10:47:55.159Z,16.32
2018-05-04T10:48:55.139Z,16.22
2018-05-04T10:49:55.115Z,16.21
2018-05-04T10:50:55.141Z,16.22
2018-05-04T10:51:55.063Z,16.17
2018-05-04T10:52:55.035Z,16.21
2018-05-04T10:53:55.016Z,16.18
2018-05-04T10:54:55.000Z,16.21
2018-05-04T10:55:55.013Z,16.32
2018-05-04T10:56:54.933Z,16.25
2018-05-04T10:57:54.945Z,16.17
2018-05-04T10:58:54.885Z,16.25
2018-05-04T10:59:54.865Z,16.21
2018-05-04T11:00:54.841Z,16.16
2018-05-04T11:01:54.865Z,16.29
2018-05-04T11:02:54.786Z,16.33
2018-05-04T11:03:54.785Z,16.37
2018-05-04T11:04:54.737Z,16.34
2018-05-04T11:05:54.715Z,16.45
2018-05-04T11:06:54.729Z,16.44
2018-05-04T11:07:54.665Z,16.47
2018-05-04T11:08:54.674Z,16.52
2018-05-04T11:09:54.664Z,16.47
2018-05-04T11:10:54.589Z,16.51
2018-05-04T11:11:54.639Z,16.59
2018-05-04T11:12:54.551Z,16.67
2018-05-04T11:13:54.565Z,16.69
2018-05-04T11:14:54.490Z,16.81
2018-05-04T11:15:54.464Z,16.72
2018-05-04T11:16:54.440Z,16.76
2018-05-04T11:17:54.421Z,16.84
2018-05-04T11:18:54.435Z,16.90
2018-05-04T11:19:54.408Z,16.87
2018-05-04T11:20:54.352Z,16.84
2018-05-04T11:21:54.323Z,16.85
2018-05-04T11:22:54.298Z,16.87
2018-05-04T11:23:54.275Z,16.85
2018-05-04T11:24:54.303Z,16.81
2018-05-04T11:25:54.222Z,16.81
2018-05-04T11:26:54.278Z,16.77
2018-05-04T11:27:54.185Z,16.80
2018-05-04T11:28:54.148Z,16.85
2018-05-04T11:29:54.167Z,16.95
2018-05-04T11:30:54.187Z,16.84
2018-05-04T11:31:54.110Z,16.85
2018-05-04T11:32:54.060Z,16.80
2018-05-04T11:33:54.028Z,16.90
2018-05-04T11:34:54.004Z,16.95
2018-05-04T11:35:54.018Z,16.92
2018-05-04T11:36:54.004Z,16.94
2018-05-04T11:37:53.941Z,16.90
2018-05-04T11:38:53.964Z,16.91
2018-05-04T11:39:53.884Z,16.97
2018-05-04T11:40:53.868Z,16.87
2018-05-04T11:41:53.878Z,16.92
2018-05-04T11:42:53.809Z,17.05
2018-05-04T11:43:53.824Z,17.03
2018-05-04T11:44:53.760Z,17.02
2018-05-04T11:45:53.745Z,16.91
2018-05-04T11:46:53.751Z,16.99
2018-05-04T11:47:53.692Z,17.07
2018-05-04T11:48:53.730Z,17.07
2018-05-04T11:49:53.648Z,17.09
2018-05-04T11:50:53.633Z,17.24
2018-05-04T11:51:53.604Z,17.17
2018-05-04T11:52:53.572Z,17.20
2018-05-04T11:53:53.607Z,17.17
2018-05-04T11:54:53.539Z,17.17
2018-05-04T11:55:53.495Z,17.30
2018-05-04T11:56:53.476Z,17.30
2018-05-04T11:57:53.454Z,17.38
2018-05-04T11:58:53.473Z,17.38
2018-05-04T11:59:53.410Z,17.42
2018-05-04T12:00:53.445Z,17.28
2018-05-04T12:01:53.359Z,17.43
2018-05-04T12:02:53.332Z,17.35
2018-05-04T12:03:53.319Z,17.38
2018-05-04T12:04:53.290Z,17.43
2018-05-04T12:05:53.303Z,17.46
2018-05-04T12:06:53.233Z,17.63
2018-05-04T12:07:53.217Z,17.69
2018-05-04T12:08:53.194Z,17.63
2018-05-04T12:09:53.170Z,17.68
2018-05-04T12:10:53.254Z,17.62
2018-05-04T12:11:53.119Z,17.68
2018-05-04T12:12:53.093Z,17.62
2018-05-04T12:13:53.076Z,17.79
2018-05-04T12:14:53.101Z,17.60
2018-05-04T12:15:53.025Z,17.62
2018-05-04T12:16:53.004Z,17.68
2018-05-04T12:17:52.977Z,17.54
2018-05-04T12:18:52.961Z,17.50
2018-05-04T12:19:53.476Z,17.55
2018-05-04T12:20:53.034Z,17.57
2018-05-04T12:21:52.890Z,17.65
2018-05-04T12:22:52.907Z,17.63
2018-05-04T12:23:52.928Z,17.63
2018-05-04T12:24:52.811Z,17.81
2018-05-04T12:25:52.786Z,17.84
2018-05-04T12:26:52.771Z,17.65
2018-05-04T12:27:52.743Z,17.52
2018-05-04T12:28:52.839Z,17.52
2018-05-04T12:29:52.692Z,17.55
2018-05-04T12:30:52.676Z,17.43
2018-05-04T12:31:52.658Z,17.42
2018-05-04T12:32:52.626Z,17.46
2018-05-04T12:33:52.700Z,17.46
2018-05-04T12:34:52.644Z,17.55
2018-05-04T12:35:52.549Z,17.50
2018-05-04T12:36:52.529Z,17.60
2018-05-04T12:37:52.509Z,17.83
2018-05-04T12:38:52.503Z,17.83
2018-05-04T12:39:52.516Z,17.80
2018-05-04T12:40:52.434Z,17.87
2018-05-04T12:41:52.416Z,17.87
2018-05-04T12:42:52.388Z,17.96
2018-05-04T12:43:52.371Z,17.98
2018-05-04T12:44:52.376Z,17.86
2018-05-04T12:45:52.371Z,17.86
2018-05-04T12:46:52.307Z,17.87
2018-05-04T12:47:52.271Z,17.88
2018-05-04T12:48:52.253Z,17.98
2018-05-04T12:49:52.230Z,18.02
2018-05-04T12:50:52.245Z,18.03
2018-05-04T12:51:52.185Z,18.08
2018-05-04T12:52:52.155Z,18.01
2018-05-04T12:53:52.279Z,18.08
2018-05-04T12:54:52.135Z,18.11
2018-05-04T12:55:52.124Z,18.19
2018-05-04T12:56:52.063Z,18.27
2018-05-04T12:57:52.061Z,18.41
2018-05-04T12:58:52.019Z,18.35
2018-05-04T12:59:52.027Z,18.42
2018-05-04T13:00:51.971Z,18.49
2018-05-04T13:01:51.991Z,18.50
2018-05-04T13:02:51.930Z,18.47
2018-05-04T13:03:51.904Z,18.51